地図

経路データ

SID SEASON NUMBER BASIN SUBBASIN NAME ISO_TIME NATURE LAT LON WMO_WIND WMO_PRES WMO_AGENCY TRACK_TYPE DIST2LAND LANDFALL IFLAG USA_AGENCY USA_ATCF_ID USA_LAT USA_LON USA_RECORD USA_STATUS USA_WIND USA_PRES USA_SSHS USA_R34_NE USA_R34_SE USA_R34_SW USA_R34_NW USA_R50_NE USA_R50_SE USA_R50_SW USA_R50_NW USA_R64_NE USA_R64_SE USA_R64_SW USA_R64_NW USA_POCI USA_ROCI USA_RMW USA_EYE TOKYO_LAT TOKYO_LON TOKYO_GRADE TOKYO_WIND TOKYO_PRES TOKYO_R50_DIR TOKYO_R50_LONG TOKYO_R50_SHORT TOKYO_R30_DIR TOKYO_R30_LONG TOKYO_R30_SHORT TOKYO_LAND CMA_LAT CMA_LON CMA_CAT CMA_WIND CMA_PRES HKO_LAT HKO_LON HKO_CAT HKO_WIND HKO_PRES NEWDELHI_LAT NEWDELHI_LON NEWDELHI_GRADE NEWDELHI_WIND NEWDELHI_PRES NEWDELHI_CI NEWDELHI_DP NEWDELHI_POCI REUNION_LAT REUNION_LON REUNION_TYPE REUNION_WIND REUNION_PRES REUNION_TNUM REUNION_CI REUNION_RMW REUNION_R34_NE REUNION_R34_SE REUNION_R34_SW REUNION_R34_NW REUNION_R50_NE REUNION_R50_SE REUNION_R50_SW REUNION_R50_NW REUNION_R64_NE REUNION_R64_SE REUNION_R64_SW REUNION_R64_NW BOM_LAT BOM_LON BOM_TYPE BOM_WIND BOM_PRES BOM_TNUM BOM_CI BOM_RMW BOM_R34_NE BOM_R34_SE BOM_R34_SW BOM_R34_NW BOM_R50_NE BOM_R50_SE BOM_R50_SW BOM_R50_NW BOM_R64_NE BOM_R64_SE BOM_R64_SW BOM_R64_NW BOM_ROCI BOM_POCI BOM_EYE BOM_POS_METHOD BOM_PRES_METHOD NADI_LAT NADI_LON NADI_CAT NADI_WIND NADI_PRES WELLINGTON_LAT WELLINGTON_LON WELLINGTON_WIND WELLINGTON_PRES DS824_LAT DS824_LON DS824_STAGE DS824_WIND DS824_PRES TD9636_LAT TD9636_LON TD9636_STAGE TD9636_WIND TD9636_PRES TD9635_LAT TD9635_LON TD9635_WIND TD9635_PRES TD9635_ROCI NEUMANN_LAT NEUMANN_LON NEUMANN_CLASS NEUMANN_WIND NEUMANN_PRES MLC_LAT MLC_LON MLC_CLASS MLC_WIND MLC_PRES USA_GUST BOM_GUST BOM_GUST_PER REUNION_GUST REUNION_GUST_PER USA_SEAHGT USA_SEARAD_NE USA_SEARAD_SE USA_SEARAD_SW USA_SEARAD_NW STORM_SPEED STORM_DIR
1933183S18154 1934 21 SP EA NOT_NAMED 1933-07-01 12:00:00 NR -17.6000 154.300 main 652 652 __________O___ -1 -17.6000 154.300 7 1 0
1933183S18154 1934 21 SP EA NOT_NAMED 1933-07-01 15:00:00 NR -17.5748 154.324 main 652 652 __________P___ -1 -17.5748 154.324 7 0 0
1933183S18154 1934 21 SP EA NOT_NAMED 1933-07-01 18:00:00 NR -17.5897 154.319 main 652 646 __________P___ -1 -17.5897 154.319 7 1 213
1933183S18154 1934 21 SP EA NOT_NAMED 1933-07-01 21:00:00 NR -17.6847 154.254 main 646 615 __________P___ -1 -17.6847 154.254 7 4 214
1933183S18154 1934 21 SP EA NOT_NAMED 1933-07-02 00:00:00 NR -17.9000 154.100 main 615 576 __________O___ -1 -17.9000 154.100 7 7 215
1933183S18154 1934 21 SP EA NOT_NAMED 1933-07-02 03:00:00 NR -18.2588 153.837 main 560 506 __________P___ -1 -18.2588 153.837 7 10 215
1933183S18154 1934 21 SP EA NOT_NAMED 1933-07-02 06:00:00 NR -18.7180 153.491 main 506 436 __________P___ -1 -18.7180 153.491 7 12 216
1933183S18154 1934 21 SP EA NOT_NAMED 1933-07-02 09:00:00 NR -19.2182 153.100 main 436 366 __________P___ -1 -19.2182 153.100 7 12 217
1933183S18154 1934 21 SP EA NOT_NAMED 1933-07-02 12:00:00 NR -19.7000 152.700 main 366 311 __________O___ -1 -19.7000 152.700 7 11 219
1933183S18154 1934 21 SP EA NOT_NAMED 1933-07-02 15:00:00 NR -20.0867 152.341 main 305 260 __________P___ -1 -20.0867 152.341 7 10 222
1933183S18154 1934 21 SP EA NOT_NAMED 1933-07-02 18:00:00 NR -20.4448 151.984 main 260 206 __________P___ -1 -20.4448 151.984 7 10 224
1933183S18154 1934 21 SP EA NOT_NAMED 1933-07-02 21:00:00 NR -20.7805 151.635 main 201 158 __________P___ -1 -20.7805 151.635 7 9 224
1933183S18154 1934 21 SP EA NOT_NAMED 1933-07-03 00:00:00 NR -21.1000 151.300 main 158 113 __________O___ -1 -21.1000 151.300 7 9 227
1933183S18154 1934 21 SP EA NOT_NAMED 1933-07-03 03:00:00 NR -21.4227 150.897 main 113 76 __________P___ -1 -21.4227 150.897 7 10 229
1933183S18154 1934 21 SP EA NOT_NAMED 1933-07-03 06:00:00 NR -21.7302 150.521 main 76 30 __________P___ -1 -21.7302 150.521 7 9 226
1933183S18154 1934 21 SP EA NOT_NAMED 1933-07-03 09:00:00 NR -22.0225 150.235 main 30 0 __________P___ -1 -22.0225 150.235 7 7 214
1933183S18154 1934 21 SP EA NOT_NAMED 1933-07-03 12:00:00 NR -22.3000 150.100 main 0 0 __________O___ -1 -22.3000 150.100 7 6 186
1933183S18154 1934 21 SP EA NOT_NAMED 1933-07-03 15:00:00 NR -22.6088 150.174 main 0 0 __________P___ -1 -22.6088 150.174 7 7 155
1933183S18154 1934 21 SP EA NOT_NAMED 1933-07-03 18:00:00 NR -22.8973 150.403 main 0 0 __________P___ -1 -22.8973 150.403 7 7 136
1933183S18154 1934 21 SP EA NOT_NAMED 1933-07-03 21:00:00 NR -23.1371 150.730 main 0 0 __________P___ -1 -23.1371 150.730 7 8 122
1933183S18154 1934 21 SP EA NOT_NAMED 1933-07-04 00:00:00 NR -23.3000 151.100 main 30 30 __________O___ -1 -23.3000 151.100 7 7 109
1933183S18154 1934 21 SP EA NOT_NAMED 1933-07-04 03:00:00 NR -23.3542 151.426 main 52 52 __________P___ -1 -23.3542 151.426 7 6 93
1933183S18154 1934 21 SP EA NOT_NAMED 1933-07-04 06:00:00 NR -23.3326 151.779 main 89 89 __________P___ -1 -23.3326 151.779 7 7 83
1933183S18154 1934 21 SP EA NOT_NAMED 1933-07-04 09:00:00 NR -23.2698 152.142 main 94 94 __________P___ -1 -23.2698 152.142 7 7 79
1933183S18154 1934 21 SP EA NOT_NAMED 1933-07-04 12:00:00 NR -23.2000 152.500 main 123 123 __________O___ -1 -23.2000 152.500 7 7 80
1933183S18154 1934 21 SP EA NOT_NAMED 1933-07-04 15:00:00 NR -23.1510 152.842 main 143 143 __________P___ -1 -23.1510 152.842 7 6 83
1933183S18154 1934 21 SP EA NOT_NAMED 1933-07-04 18:00:00 NR -23.1228 153.169 main 180 180 __________P___ -1 -23.1228 153.169 7 6 86
1933183S18154 1934 21 SP EA NOT_NAMED 1933-07-04 21:00:00 NR -23.1081 153.487 main 191 191 __________P___ -1 -23.1081 153.487 7 6 88
1933183S18154 1934 21 SP EA NOT_NAMED 1933-07-05 00:00:00 NR -23.1000 153.800 main 196 __________O___ -1 -23.1000 153.800 7 6 88

デジタル台風データ・検索

IBTrACS Databaseについて

本データベースは、米国NOAAが公開する1842年以降の世界の熱帯低気圧のベストトラックデータアーカイブInternational Best Track Archive for Climate Stewardship (IBTrACS)を、ウェブで閲覧しやすい形式に変換したものです。

最終更新日:2021-11-26